Christine Anderson — WCN2606 — position and weather

sailwx.info

Track history (hours):
 
Tides and Currents Weather Stations Pressure Air Temp Water Temp Dewpoint Dewpoint Depression Visibility Wind Speed Wind Dir Waves Ship Positions

Christine Anderson

Owner: PIERCE, COUNTY OF, TACOMA, WA. More information available from US FCC via Universal Licensing System and Coast Guard Vessel Documentation Center.

Last reported at 2015-Sep-01 17:32 UTC. Time now 2015-Sep-01 18:11 UTC.
Position N 47°11' W 122°40'.

MMSI: 366659730.

Date/timePositionNaut miles runAvg speedWind from/ knotsBaromVisibWave heightAir tempDewpointWater temp
2015-Sep-01 17:32N 47°11' W 122°40'0 0.2
2015-Sep-01 16:34N 47°11' W 122°40'0 0.2
2015-Sep-01 15:27N 47°11' W 122°41'0 0.4
2015-Sep-01 14:33N 47°11' W 122°40'3 2.7
2015-Sep-01 13:33N 47°10' W 122°36'0 0.0
2015-Sep-01 12:34N 47°10' W 122°36'0 0.0
2015-Sep-01 03:22N 47°10' W 122°36'0 0.0
2015-Sep-01 02:33N 47°10' W 122°36'0 0.0
2015-Sep-01 01:33N 47°10' W 122°36'3 2.8
2015-Sep-01 00:30N 47°11' W 122°40'0 0.0
2015-Aug-31 23:27N 47°11' W 122°40'0 0.4
2015-Aug-31 22:24N 47°11' W 122°40'0 0.4
2015-Aug-31 21:27N 47°11' W 122°40'3 3.2
2015-Aug-31 20:33N 47°10' W 122°36'3 2.2
2015-Aug-31 19:16N 47°11' W 122°40'3 4.0
2015-Aug-31 18:33N 47°10' W 122°36'3 2.3
2015-Aug-31 17:18N 47°11' W 122°40'0 0.1
2015-Aug-31 16:17N 47°11' W 122°40'0 0.5
2015-Aug-31 15:33N 47°11' W 122°40'0 0.2
2015-Aug-31 14:32N 47°11' W 122°40'3 2.8
2015-Aug-31 13:33N 47°10' W 122°36'1 0.1
2015-Aug-31 04:33N 47°10' W 122°38'1 1.2
2015-Aug-31 03:33N 47°10' W 122°36'0 0.1
2015-Aug-31 02:33N 47°11' W 122°36'0 0.1
2015-Aug-31 01:33N 47°10' W 122°36'2 1.8
2015-Aug-31 00:33N 47°11' W 122°39'1 0.9
2015-Aug-30 23:33N 47°11' W 122°40'0 0.1
2015-Aug-30 22:33N 47°11' W 122°40'0 0.3
2015-Aug-30 21:31N 47°11' W 122°41'3 3.1
2015-Aug-30 20:33N 47°10' W 122°36'3 2.3
2015-Aug-30 19:16N 47°11' W 122°40'3 3.9
2015-Aug-30 18:30N 47°10' W 122°36'3 2.6
2015-Aug-30 17:32N 47°11' W 122°40'0 0.2
2015-Aug-30 16:33N 47°11' W 122°40'0 0.1
2015-Aug-30 15:33N 47°11' W 122°40'0 0.1
2015-Aug-30 14:33N 47°11' W 122°40'2 0.3
2015-Aug-30 06:08N 47°10' W 122°36'3 4.7
2015-Aug-30 05:33N 47°11' W 122°40'3 2.7
2015-Aug-30 04:33N 47°10' W 122°36'0 0.0
2015-Aug-30 03:32N 47°10' W 122°36'0 0.4
2015-Aug-30 02:33N 47°11' W 122°37'0 0.2
2015-Aug-30 01:32N 47°11' W 122°36'3 2.6
2015-Aug-30 00:26N 47°11' W 122°40'0 0.0
2015-Aug-29 23:29N 47°11' W 122°40'0 0.0
2015-Aug-29 22:29N 47°11' W 122°40'0 0.1
2015-Aug-29 21:30N 47°11' W 122°41'3 3.1
2015-Aug-29 20:32N 47°10' W 122°36'3 2.9
2015-Aug-29 19:33N 47°11' W 122°40'3 2.9
2015-Aug-29 18:33N 47°10' W 122°36'2 2.3
2015-Aug-29 17:33N 47°11' W 122°40'0 0.0
2015-Aug-29 16:33N 47°11' W 122°40'0 0.1
2015-Aug-29 15:33N 47°11' W 122°40'0 0.1
2015-Aug-29 14:32N 47°11' W 122°40'3 2.6
2015-Aug-29 13:33N 47°10' W 122°36'0 0.0
2015-Aug-29 12:33N 47°10' W 122°36'0 0.0
2015-Aug-29 07:04N 47°10' W 122°36'2 4.6
2015-Aug-29 06:33N 47°11' W 122°40'2 2.4
2015-Aug-29 05:33N 47°10' W 122°36'0 0.0
2015-Aug-29 04:33N 47°10' W 122°36'0 0.0
2015-Aug-29 03:31N 47°10' W 122°36'0 0.0
2015-Aug-29 02:33N 47°10' W 122°36'0 0.0
2015-Aug-29 01:33N 47°10' W 122°36'0 0.0
2015-Aug-29 00:32N 47°10' W 122°36'0 0.0
2015-Aug-28 23:32N 47°10' W 122°36'1 1.2
2015-Aug-28 22:33N 47°10' W 122°38'2 1.8
2015-Aug-28 21:31N 47°11' W 122°41'3 3.0
2015-Aug-28 20:31N 47°10' W 122°36'3 3.1
2015-Aug-28 19:32N 47°11' W 122°41'3 3.1
2015-Aug-28 18:33N 47°10' W 122°36'3 2.7
2015-Aug-28 17:33N 47°11' W 122°40'0 0.2
2015-Aug-28 16:33N 47°11' W 122°40'0 0.3
2015-Aug-28 15:33N 47°11' W 122°40'0 0.0
2015-Aug-28 14:33N 47°11' W 122°40'3 2.6
2015-Aug-28 13:33N 47°10' W 122°36'0 0.0
2015-Aug-28 12:33N 47°10' W 122°36'1 0.1
2015-Aug-28 04:33N 47°10' W 122°37'1 0.9
2015-Aug-28 03:32N 47°10' W 122°36'0 0.3
2015-Aug-28 02:33N 47°11' W 122°36'0 0.3
2015-Aug-28 01:33N 47°11' W 122°37'2 1.5
2015-Aug-28 00:32N 47°11' W 122°39'0 0.2
2015-Aug-27 23:33N 47°11' W 122°39'0 0.1
2015-Aug-27 22:33N 47°11' W 122°39'1 0.8
2015-Aug-27 21:27N 47°11' W 122°40'3 3.2
2015-Aug-27 20:33N 47°10' W 122°36'3 3.0
2015-Aug-27 19:33N 47°11' W 122°41'3 3.1
2015-Aug-27 18:33N 47°10' W 122°36'3 3.0
2015-Aug-27 17:33N 47°11' W 122°41'0 0.0
2015-Aug-27 16:33N 47°11' W 122°41'0 0.0
2015-Aug-27 15:33N 47°11' W 122°41'0 0.1
2015-Aug-27 14:33N 47°11' W 122°40'3 2.9
2015-Aug-27 13:33N 47°10' W 122°36'0 0.0
2015-Aug-27 12:33N 47°10' W 122°36'0 0.0
2015-Aug-27 03:26N 47°10' W 122°36'0 0.0
2015-Aug-27 02:33N 47°10' W 122°36'0 0.0
2015-Aug-27 01:20N 47°10' W 122°36'2 2.6
2015-Aug-27 00:33N 47°11' W 122°39'0 0.2
2015-Aug-26 23:31N 47°11' W 122°39'1 0.7
2015-Aug-26 22:33N 47°11' W 122°40'1 0.6
2015-Aug-26 21:31N 47°11' W 122°40'0 0.0
2015-Aug-26 19:19N 47°11' W 122°41'3 3.6
2015-Aug-26 18:29N 47°10' W 122°36'3 3.1
2015-Aug-26 17:31N 47°11' W 122°41'0 0.0
2015-Aug-26 16:33N 47°11' W 122°41'0 0.0
2015-Aug-26 15:33N 47°11' W 122°41'0 0.3
2015-Aug-26 14:33N 47°11' W 122°40'3 2.7
2015-Aug-26 13:33N 47°10' W 122°36'0 0.0
2015-Aug-26 12:32N 47°10' W 122°36'0 0.0
2015-Aug-26 03:16N 47°10' W 122°36'1 0.7
2015-Aug-26 02:33N 47°11' W 122°37'0 0.1
2015-Aug-26 01:33N 47°11' W 122°37'3 2.6
2015-Aug-26 00:33N 47°11' W 122°41'0 0.0
2015-Aug-25 23:28N 47°11' W 122°41'0 0.3
2015-Aug-25 22:32N 47°11' W 122°40'0 0.2
2015-Aug-25 21:27N 47°11' W 122°41'3 3.3
2015-Aug-25 20:33N 47°10' W 122°36'3 2.5
2015-Aug-25 19:21N 47°11' W 122°41'3 3.7
2015-Aug-25 18:33N 47°10' W 122°36'3 2.7
2015-Aug-25 17:33N 47°11' W 122°40'0 0.2
2015-Aug-25 16:33N 47°11' W 122°40'0 0.2
2015-Aug-25 15:33N 47°11' W 122°40'0 0.2
2015-Aug-25 14:33N 47°11' W 122°40'2 2.4
2015-Aug-25 13:33N 47°10' W 122°36'0 0.0
2015-Aug-25 12:34N 47°10' W 122°36'0 0.0
2015-Aug-25 03:20N 47°10' W 122°36'0 0.4
2015-Aug-25 02:33N 47°11' W 122°36'0 0.2
2015-Aug-25 01:33N 47°11' W 122°37'3 2.6
2015-Aug-25 00:33N 47°11' W 122°41'0 0.0
2015-Aug-24 23:33N 47°11' W 122°41'0 0.0
2015-Aug-24 22:33N 47°11' W 122°41'0 0.0
2015-Aug-24 21:32N 47°11' W 122°41'3 2.9
2015-Aug-24 20:29N 47°10' W 122°36'3 2.5
2015-Aug-24 19:17N 47°11' W 122°41'3 3.9
2015-Aug-24 18:31N 47°10' W 122°36'3 2.5
2015-Aug-24 17:17N 47°11' W 122°41'1 0.7
2015-Aug-24 16:33N 47°11' W 122°40'0 0.0
2015-Aug-24 15:33N 47°11' W 122°40'0 0.3
2015-Aug-24 14:32N 47°11' W 122°40'3 2.7
2015-Aug-24 13:32N 47°11' W 122°36'0 0.1
2015-Aug-24 12:33N 47°10' W 122°36'1 0.2
2015-Aug-24 04:33N 47°10' W 122°38'1 1.2
2015-Aug-24 03:33N 47°10' W 122°36'0 0.1
2015-Aug-24 02:33N 47°11' W 122°36'0 0.1
2015-Aug-24 01:29N 47°10' W 122°36'1 1.2
2015-Aug-24 00:33N 47°11' W 122°38'0 0.3
2015-Aug-23 23:33N 47°11' W 122°38'1 1.4
2015-Aug-23 22:33N 47°11' W 122°40'0 0.3
2015-Aug-23 21:33N 47°11' W 122°41'0 0.0
2015-Aug-23 19:33N 47°11' W 122°41'3 2.7
2015-Aug-23 18:27N 47°10' W 122°36'3 3.2
2015-Aug-23 17:32N 47°11' W 122°40'1 0.5
2015-Aug-23 16:33N 47°11' W 122°40'0 0.0
2015-Aug-23 15:33N 47°11' W 122°40'0 0.1
2015-Aug-23 14:32N 47°11' W 122°40'0 0.0
2015-Aug-23 05:33N 47°11' W 122°40'3 2.4
2015-Aug-23 04:30N 47°10' W 122°36'0 0.1
2015-Aug-23 03:15N 47°10' W 122°36'0 0.6
2015-Aug-23 02:33N 47°11' W 122°37'0 0.1
2015-Aug-23 01:33N 47°11' W 122°37'3 2.5
2015-Aug-23 00:33N 47°11' W 122°41'0 0.0
2015-Aug-22 23:31N 47°11' W 122°41'0 0.0
2015-Aug-22 22:29N 47°11' W 122°41'0 0.0
2015-Aug-22 21:25N 47°11' W 122°41'3 2.2
2015-Aug-22 20:05N 47°10' W 122°36'3 5.0
2015-Aug-22 19:33N 47°11' W 122°40'  
Track history (hours):
 
Tides and Currents Weather Stations Pressure Air Temp Water Temp Dewpoint Dewpoint Depression Visibility Wind Speed Wind Dir Waves Ship Positions

Christine Anderson

Owner: PIERCE, COUNTY OF, TACOMA, WA. More information available from US FCC via Universal Licensing System and Coast Guard Vessel Documentation Center.

Last reported at 2015-Sep-01 17:32 UTC. Time now 2015-Sep-01 18:11 UTC.
Position N 47°11' W 122°40'.

MMSI: 366659730.

Date/timePositionNaut miles runAvg speedWind from/ knotsBaromVisibWave heightAir tempDewpointWater temp
2015-Sep-01 17:32N 47°11' W 122°40'0 0.2
2015-Sep-01 16:34N 47°11' W 122°40'0 0.2
2015-Sep-01 15:27N 47°11' W 122°41'0 0.4
2015-Sep-01 14:33N 47°11' W 122°40'3 2.7
2015-Sep-01 13:33N 47°10' W 122°36'0 0.0
2015-Sep-01 12:34N 47°10' W 122°36'0 0.0
2015-Sep-01 03:22N 47°10' W 122°36'0 0.0
2015-Sep-01 02:33N 47°10' W 122°36'0 0.0
2015-Sep-01 01:33N 47°10' W 122°36'3 2.8
2015-Sep-01 00:30N 47°11' W 122°40'0 0.0
2015-Aug-31 23:27N 47°11' W 122°40'0 0.4
2015-Aug-31 22:24N 47°11' W 122°40'0 0.4
2015-Aug-31 21:27N 47°11' W 122°40'3 3.2
2015-Aug-31 20:33N 47°10' W 122°36'3 2.2
2015-Aug-31 19:16N 47°11' W 122°40'3 4.0
2015-Aug-31 18:33N 47°10' W 122°36'3 2.3
2015-Aug-31 17:18N 47°11' W 122°40'0 0.1
2015-Aug-31 16:17N 47°11' W 122°40'0 0.5
2015-Aug-31 15:33N 47°11' W 122°40'0 0.2
2015-Aug-31 14:32N 47°11' W 122°40'3 2.8
2015-Aug-31 13:33N 47°10' W 122°36'1 0.1
2015-Aug-31 04:33N 47°10' W 122°38'1 1.2
2015-Aug-31 03:33N 47°10' W 122°36'0 0.1
2015-Aug-31 02:33N 47°11' W 122°36'0 0.1
2015-Aug-31 01:33N 47°10' W 122°36'2 1.8
2015-Aug-31 00:33N 47°11' W 122°39'1 0.9
2015-Aug-30 23:33N 47°11' W 122°40'0 0.1
2015-Aug-30 22:33N 47°11' W 122°40'0 0.3
2015-Aug-30 21:31N 47°11' W 122°41'3 3.1
2015-Aug-30 20:33N 47°10' W 122°36'3 2.3
2015-Aug-30 19:16N 47°11' W 122°40'3 3.9
2015-Aug-30 18:30N 47°10' W 122°36'3 2.6
2015-Aug-30 17:32N 47°11' W 122°40'0 0.2
2015-Aug-30 16:33N 47°11' W 122°40'0 0.1
2015-Aug-30 15:33N 47°11' W 122°40'0 0.1
2015-Aug-30 14:33N 47°11' W 122°40'2 0.3
2015-Aug-30 06:08N 47°10' W 122°36'3 4.7
2015-Aug-30 05:33N 47°11' W 122°40'3 2.7
2015-Aug-30 04:33N 47°10' W 122°36'0 0.0
2015-Aug-30 03:32N 47°10' W 122°36'0 0.4
2015-Aug-30 02:33N 47°11' W 122°37'0 0.2
2015-Aug-30 01:32N 47°11' W 122°36'3 2.6
2015-Aug-30 00:26N 47°11' W 122°40'0 0.0
2015-Aug-29 23:29N 47°11' W 122°40'0 0.0
2015-Aug-29 22:29N 47°11' W 122°40'0 0.1
2015-Aug-29 21:30N 47°11' W 122°41'3 3.1
2015-Aug-29 20:32N 47°10' W 122°36'3 2.9
2015-Aug-29 19:33N 47°11' W 122°40'3 2.9
2015-Aug-29 18:33N 47°10' W 122°36'2 2.3
2015-Aug-29 17:33N 47°11' W 122°40'0 0.0
2015-Aug-29 16:33N 47°11' W 122°40'0 0.1
2015-Aug-29 15:33N 47°11' W 122°40'0 0.1
2015-Aug-29 14:32N 47°11' W 122°40'3 2.6
2015-Aug-29 13:33N 47°10' W 122°36'0 0.0
2015-Aug-29 12:33N 47°10' W 122°36'0 0.0
2015-Aug-29 07:04N 47°10' W 122°36'2 4.6
2015-Aug-29 06:33N 47°11' W 122°40'2 2.4
2015-Aug-29 05:33N 47°10' W 122°36'0 0.0
2015-Aug-29 04:33N 47°10' W 122°36'0 0.0
2015-Aug-29 03:31N 47°10' W 122°36'0 0.0
2015-Aug-29 02:33N 47°10' W 122°36'0 0.0
2015-Aug-29 01:33N 47°10' W 122°36'0 0.0
2015-Aug-29 00:32N 47°10' W 122°36'0 0.0
2015-Aug-28 23:32N 47°10' W 122°36'1 1.2
2015-Aug-28 22:33N 47°10' W 122°38'2 1.8
2015-Aug-28 21:31N 47°11' W 122°41'3 3.0
2015-Aug-28 20:31N 47°10' W 122°36'3 3.1
2015-Aug-28 19:32N 47°11' W 122°41'3 3.1
2015-Aug-28 18:33N 47°10' W 122°36'3 2.7
2015-Aug-28 17:33N 47°11' W 122°40'0 0.2
2015-Aug-28 16:33N 47°11' W 122°40'0 0.3
2015-Aug-28 15:33N 47°11' W 122°40'0 0.0
2015-Aug-28 14:33N 47°11' W 122°40'3 2.6
2015-Aug-28 13:33N 47°10' W 122°36'0 0.0
2015-Aug-28 12:33N 47°10' W 122°36'1 0.1
2015-Aug-28 04:33N 47°10' W 122°37'1 0.9
2015-Aug-28 03:32N 47°10' W 122°36'0 0.3
2015-Aug-28 02:33N 47°11' W 122°36'0 0.3
2015-Aug-28 01:33N 47°11' W 122°37'2 1.5
2015-Aug-28 00:32N 47°11' W 122°39'0 0.2
2015-Aug-27 23:33N 47°11' W 122°39'0 0.1
2015-Aug-27 22:33N 47°11' W 122°39'1 0.8
2015-Aug-27 21:27N 47°11' W 122°40'3 3.2
2015-Aug-27 20:33N 47°10' W 122°36'3 3.0
2015-Aug-27 19:33N 47°11' W 122°41'3 3.1
2015-Aug-27 18:33N 47°10' W 122°36'3 3.0
2015-Aug-27 17:33N 47°11' W 122°41'0 0.0
2015-Aug-27 16:33N 47°11' W 122°41'0 0.0
2015-Aug-27 15:33N 47°11' W 122°41'0 0.1
2015-Aug-27 14:33N 47°11' W 122°40'3 2.9
2015-Aug-27 13:33N 47°10' W 122°36'0 0.0
2015-Aug-27 12:33N 47°10' W 122°36'0 0.0
2015-Aug-27 03:26N 47°10' W 122°36'0 0.0
2015-Aug-27 02:33N 47°10' W 122°36'0 0.0
2015-Aug-27 01:20N 47°10' W 122°36'2 2.6
2015-Aug-27 00:33N 47°11' W 122°39'0 0.2
2015-Aug-26 23:31N 47°11' W 122°39'1 0.7
2015-Aug-26 22:33N 47°11' W 122°40'1 0.6
2015-Aug-26 21:31N 47°11' W 122°40'0 0.0
2015-Aug-26 19:19N 47°11' W 122°41'3 3.6
2015-Aug-26 18:29N 47°10' W 122°36'3 3.1
2015-Aug-26 17:31N 47°11' W 122°41'0 0.0
2015-Aug-26 16:33N 47°11' W 122°41'0 0.0
2015-Aug-26 15:33N 47°11' W 122°41'0 0.3
2015-Aug-26 14:33N 47°11' W 122°40'3 2.7
2015-Aug-26 13:33N 47°10' W 122°36'0 0.0
2015-Aug-26 12:32N 47°10' W 122°36'0 0.0
2015-Aug-26 03:16N 47°10' W 122°36'1 0.7
2015-Aug-26 02:33N 47°11' W 122°37'0 0.1
2015-Aug-26 01:33N 47°11' W 122°37'3 2.6
2015-Aug-26 00:33N 47°11' W 122°41'0 0.0
2015-Aug-25 23:28N 47°11' W 122°41'0 0.3
2015-Aug-25 22:32N 47°11' W 122°40'0 0.2
2015-Aug-25 21:27N 47°11' W 122°41'3 3.3
2015-Aug-25 20:33N 47°10' W 122°36'3 2.5
2015-Aug-25 19:21N 47°11' W 122°41'3 3.7
2015-Aug-25 18:33N 47°10' W 122°36'3 2.7
2015-Aug-25 17:33N 47°11' W 122°40'0 0.2
2015-Aug-25 16:33N 47°11' W 122°40'0 0.2
2015-Aug-25 15:33N 47°11' W 122°40'0 0.2
2015-Aug-25 14:33N 47°11' W 122°40'2 2.4
2015-Aug-25 13:33N 47°10' W 122°36'0 0.0
2015-Aug-25 12:34N 47°10' W 122°36'0 0.0
2015-Aug-25 03:20N 47°10' W 122°36'0 0.4
2015-Aug-25 02:33N 47°11' W 122°36'0 0.2
2015-Aug-25 01:33N 47°11' W 122°37'3 2.6
2015-Aug-25 00:33N 47°11' W 122°41'0 0.0
2015-Aug-24 23:33N 47°11' W 122°41'0 0.0
2015-Aug-24 22:33N 47°11' W 122°41'0 0.0
2015-Aug-24 21:32N 47°11' W 122°41'3 2.9
2015-Aug-24 20:29N 47°10' W 122°36'3 2.5
2015-Aug-24 19:17N 47°11' W 122°41'3 3.9
2015-Aug-24 18:31N 47°10' W 122°36'3 2.5
2015-Aug-24 17:17N 47°11' W 122°41'1 0.7
2015-Aug-24 16:33N 47°11' W 122°40'0 0.0
2015-Aug-24 15:33N 47°11' W 122°40'0 0.3
2015-Aug-24 14:32N 47°11' W 122°40'3 2.7
2015-Aug-24 13:32N 47°11' W 122°36'0 0.1
2015-Aug-24 12:33N 47°10' W 122°36'1 0.2
2015-Aug-24 04:33N 47°10' W 122°38'1 1.2
2015-Aug-24 03:33N 47°10' W 122°36'0 0.1
2015-Aug-24 02:33N 47°11' W 122°36'0 0.1
2015-Aug-24 01:29N 47°10' W 122°36'1 1.2
2015-Aug-24 00:33N 47°11' W 122°38'0 0.3
2015-Aug-23 23:33N 47°11' W 122°38'1 1.4
2015-Aug-23 22:33N 47°11' W 122°40'0 0.3
2015-Aug-23 21:33N 47°11' W 122°41'0 0.0
2015-Aug-23 19:33N 47°11' W 122°41'3 2.7
2015-Aug-23 18:27N 47°10' W 122°36'3 3.2
2015-Aug-23 17:32N 47°11' W 122°40'1 0.5
2015-Aug-23 16:33N 47°11' W 122°40'0 0.0
2015-Aug-23 15:33N 47°11' W 122°40'0 0.1
2015-Aug-23 14:32N 47°11' W 122°40'0 0.0
2015-Aug-23 05:33N 47°11' W 122°40'3 2.4
2015-Aug-23 04:30N 47°10' W 122°36'0 0.1
2015-Aug-23 03:15N 47°10' W 122°36'0 0.6
2015-Aug-23 02:33N 47°11' W 122°37'0 0.1
2015-Aug-23 01:33N 47°11' W 122°37'3 2.5
2015-Aug-23 00:33N 47°11' W 122°41'0 0.0
2015-Aug-22 23:31N 47°11' W 122°41'0 0.0
2015-Aug-22 22:29N 47°11' W 122°41'0 0.0
2015-Aug-22 21:25N 47°11' W 122°41'3 2.2
2015-Aug-22 20:05N 47°10' W 122°36'3 5.0
2015-Aug-22 19:33N 47°11' W 122°40'  

Dump ship's entire track history